sensor_id;sensor_type;location;lat;lon;timestamp;P1;durP1;ratioP1;P2;durP2;ratioP2
47529;SDS011;33272;51.922;7.730;2023-01-31T00:01:06;13.67;;;4.20;;
47529;SDS011;33272;51.922;7.730;2023-01-31T00:03:36;10.83;;;3.67;;
47529;SDS011;33272;51.922;7.730;2023-01-31T00:06:15;16.30;;;4.50;;
47529;SDS011;33272;51.922;7.730;2023-01-31T00:08:45;22.50;;;4.53;;
47529;SDS011;33272;51.922;7.730;2023-01-31T00:11:14;17.43;;;4.10;;
47529;SDS011;33272;51.922;7.730;2023-01-31T00:13:43;18.93;;;4.00;;
47529;SDS011;33272;51.922;7.730;2023-01-31T00:16:12;15.20;;;3.90;;
47529;SDS011;33272;51.922;7.730;2023-01-31T00:18:40;15.63;;;4.03;;
47529;SDS011;33272;51.922;7.730;2023-01-31T00:21:07;13.77;;;3.47;;
47529;SDS011;33272;51.922;7.730;2023-01-31T00:23:36;13.33;;;4.03;;
47529;SDS011;33272;51.922;7.730;2023-01-31T00:26:13;17.63;;;4.67;;
47529;SDS011;33272;51.922;7.730;2023-01-31T00:28:43;10.50;;;3.57;;
47529;SDS011;33272;51.922;7.730;2023-01-31T00:31:12;16.00;;;4.47;;
47529;SDS011;33272;51.922;7.730;2023-01-31T00:33:41;17.67;;;4.53;;
47529;SDS011;33272;51.922;7.730;2023-01-31T00:36:11;18.57;;;4.67;;
47529;SDS011;33272;51.922;7.730;2023-01-31T00:38:41;17.33;;;4.90;;
47529;SDS011;33272;51.922;7.730;2023-01-31T00:41:08;17.17;;;5.03;;
47529;SDS011;33272;51.922;7.730;2023-01-31T00:43:38;13.97;;;4.30;;
47529;SDS011;33272;51.922;7.730;2023-01-31T00:46:05;15.50;;;4.67;;
47529;SDS011;33272;51.922;7.730;2023-01-31T00:48:32;11.40;;;4.27;;
47529;SDS011;33272;51.922;7.730;2023-01-31T00:50:59;17.23;;;5.10;;
47529;SDS011;33272;51.922;7.730;2023-01-31T00:53:26;13.33;;;3.93;;
47529;SDS011;33272;51.922;7.730;2023-01-31T00:55:54;16.13;;;4.27;;
47529;SDS011;33272;51.922;7.730;2023-01-31T00:58:27;15.27;;;4.57;;
47529;SDS011;33272;51.922;7.730;2023-01-31T01:00:56;12.47;;;3.70;;
47529;SDS011;33272;51.922;7.730;2023-01-31T01:03:32;15.53;;;3.50;;
47529;SDS011;33272;51.922;7.730;2023-01-31T01:05:59;14.83;;;4.23;;
47529;SDS011;33272;51.922;7.730;2023-01-31T01:08:26;15.77;;;4.57;;
47529;SDS011;33272;51.922;7.730;2023-01-31T01:10:54;16.53;;;3.90;;
47529;SDS011;33272;51.922;7.730;2023-01-31T01:13:21;15.70;;;4.17;;
47529;SDS011;33272;51.922;7.730;2023-01-31T01:15:48;11.53;;;4.10;;
47529;SDS011;33272;51.922;7.730;2023-01-31T01:18:17;17.47;;;3.90;;
47529;SDS011;33272;51.922;7.730;2023-01-31T01:20:44;20.13;;;5.27;;
47529;SDS011;33272;51.922;7.730;2023-01-31T01:23:11;16.13;;;5.10;;
47529;SDS011;33272;51.922;7.730;2023-01-31T01:25:41;14.80;;;4.20;;
47529;SDS011;33272;51.922;7.730;2023-01-31T01:28:09;10.03;;;2.90;;
47529;SDS011;33272;51.922;7.730;2023-01-31T01:30:36;13.60;;;3.93;;
47529;SDS011;33272;51.922;7.730;2023-01-31T01:33:03;20.03;;;4.20;;
47529;SDS011;33272;51.922;7.730;2023-01-31T01:35:32;13.37;;;3.50;;
47529;SDS011;33272;51.922;7.730;2023-01-31T01:37:59;14.50;;;4.47;;
47529;SDS011;33272;51.922;7.730;2023-01-31T01:40:33;14.37;;;5.20;;
47529;SDS011;33272;51.922;7.730;2023-01-31T01:43:01;12.77;;;3.93;;
47529;SDS011;33272;51.922;7.730;2023-01-31T01:45:28;15.13;;;4.50;;
47529;SDS011;33272;51.922;7.730;2023-01-31T01:47:56;15.17;;;5.67;;
47529;SDS011;33272;51.922;7.730;2023-01-31T01:50:29;11.97;;;4.37;;
47529;SDS011;33272;51.922;7.730;2023-01-31T01:53:02;14.37;;;4.13;;
47529;SDS011;33272;51.922;7.730;2023-01-31T01:55:36;17.17;;;5.10;;
47529;SDS011;33272;51.922;7.730;2023-01-31T01:58:08;16.47;;;4.10;;
47529;SDS011;33272;51.922;7.730;2023-01-31T02:00:40;8.80;;;3.47;;
47529;SDS011;33272;51.922;7.730;2023-01-31T02:03:09;14.27;;;4.07;;
47529;SDS011;33272;51.922;7.730;2023-01-31T02:05:39;12.63;;;4.13;;
47529;SDS011;33272;51.922;7.730;2023-01-31T02:08:09;19.23;;;4.30;;
47529;SDS011;33272;51.922;7.730;2023-01-31T02:10:38;12.63;;;3.70;;
47529;SDS011;33272;51.922;7.730;2023-01-31T02:13:12;14.73;;;4.50;;
47529;SDS011;33272;51.922;7.730;2023-01-31T02:15:40;13.20;;;4.40;;
47529;SDS011;33272;51.922;7.730;2023-01-31T02:18:07;14.40;;;3.70;;
47529;SDS011;33272;51.922;7.730;2023-01-31T02:27:33;14.10;;;3.90;;
47529;SDS011;33272;51.922;7.730;2023-01-31T02:31:03;12.83;;;4.57;;
47529;SDS011;33272;51.922;7.730;2023-01-31T02:34:13;16.10;;;4.00;;
47529;SDS011;33272;51.922;7.730;2023-01-31T02:36:48;13.57;;;4.43;;
47529;SDS011;33272;51.922;7.730;2023-01-31T02:39:28;12.97;;;4.23;;
47529;SDS011;33272;51.922;7.730;2023-01-31T02:42:09;13.20;;;3.90;;
47529;SDS011;33272;51.922;7.730;2023-01-31T02:44:48;15.73;;;4.13;;
47529;SDS011;33272;51.922;7.730;2023-01-31T02:47:33;14.53;;;4.30;;
47529;SDS011;33272;51.922;7.730;2023-01-31T02:50:20;11.70;;;3.93;;
47529;SDS011;33272;51.922;7.730;2023-01-31T02:52:53;11.97;;;4.50;;
47529;SDS011;33272;51.922;7.730;2023-01-31T02:55:27;16.70;;;4.30;;
47529;SDS011;33272;51.922;7.730;2023-01-31T02:58:17;12.70;;;3.73;;
47529;SDS011;33272;51.922;7.730;2023-01-31T03:00:47;13.80;;;4.13;;
47529;SDS011;33272;51.922;7.730;2023-01-31T03:03:17;12.93;;;3.80;;
47529;SDS011;33272;51.922;7.730;2023-01-31T03:09:18;13.80;;;4.00;;
47529;SDS011;33272;51.922;7.730;2023-01-31T03:12:01;15.97;;;4.90;;
47529;SDS011;33272;51.922;7.730;2023-01-31T03:15:06;18.20;;;4.33;;
47529;SDS011;33272;51.922;7.730;2023-01-31T03:18:12;16.53;;;4.80;;
47529;SDS011;33272;51.922;7.730;2023-01-31T03:20:46;16.43;;;4.20;;
47529;SDS011;33272;51.922;7.730;2023-01-31T03:23:21;11.80;;;4.37;;
47529;SDS011;33272;51.922;7.730;2023-01-31T03:25:53;12.77;;;3.93;;
47529;SDS011;33272;51.922;7.730;2023-01-31T03:28:24;14.73;;;3.83;;
47529;SDS011;33272;51.922;7.730;2023-01-31T03:30:55;12.10;;;4.00;;
47529;SDS011;33272;51.922;7.730;2023-01-31T03:33:29;16.83;;;4.60;;
47529;SDS011;33272;51.922;7.730;2023-01-31T03:36:01;13.40;;;5.03;;
47529;SDS011;33272;51.922;7.730;2023-01-31T03:38:40;11.07;;;3.90;;
47529;SDS011;33272;51.922;7.730;2023-01-31T03:41:20;16.00;;;4.47;;
47529;SDS011;33272;51.922;7.730;2023-01-31T03:43:54;16.20;;;4.53;;
47529;SDS011;33272;51.922;7.730;2023-01-31T03:46:27;15.77;;;4.30;;
47529;SDS011;33272;51.922;7.730;2023-01-31T03:48:59;13.33;;;4.73;;
47529;SDS011;33272;51.922;7.730;2023-01-31T03:51:32;14.50;;;5.03;;
47529;SDS011;33272;51.922;7.730;2023-01-31T03:54:05;20.20;;;4.27;;
47529;SDS011;33272;51.922;7.730;2023-01-31T03:56:37;13.03;;;4.10;;
47529;SDS011;33272;51.922;7.730;2023-01-31T03:59:09;12.77;;;3.83;;
47529;SDS011;33272;51.922;7.730;2023-01-31T04:01:40;13.73;;;4.53;;
47529;SDS011;33272;51.922;7.730;2023-01-31T04:04:14;12.80;;;4.50;;
47529;SDS011;33272;51.922;7.730;2023-01-31T04:06:46;15.63;;;4.40;;
47529;SDS011;33272;51.922;7.730;2023-01-31T04:09:14;14.07;;;4.57;;
47529;SDS011;33272;51.922;7.730;2023-01-31T04:11:42;17.57;;;4.93;;
47529;SDS011;33272;51.922;7.730;2023-01-31T04:14:14;11.40;;;3.80;;
47529;SDS011;33272;51.922;7.730;2023-01-31T04:16:42;16.93;;;4.83;;
47529;SDS011;33272;51.922;7.730;2023-01-31T04:19:09;10.00;;;3.13;;
47529;SDS011;33272;51.922;7.730;2023-01-31T04:21:36;13.63;;;4.60;;
47529;SDS011;33272;51.922;7.730;2023-01-31T04:24:03;15.07;;;4.40;;
47529;SDS011;33272;51.922;7.730;2023-01-31T04:26:34;12.93;;;3.93;;
47529;SDS011;33272;51.922;7.730;2023-01-31T04:29:02;15.80;;;4.50;;
47529;SDS011;33272;51.922;7.730;2023-01-31T04:31:30;11.70;;;3.73;;
47529;SDS011;33272;51.922;7.730;2023-01-31T04:33:57;13.93;;;3.90;;
47529;SDS011;33272;51.922;7.730;2023-01-31T04:36:24;11.33;;;4.00;;
47529;SDS011;33272;51.922;7.730;2023-01-31T04:38:51;15.13;;;4.50;;
47529;SDS011;33272;51.922;7.730;2023-01-31T04:41:18;12.70;;;3.97;;
47529;SDS011;33272;51.922;7.730;2023-01-31T04:43:46;13.83;;;3.47;;
47529;SDS011;33272;51.922;7.730;2023-01-31T04:46:13;12.07;;;4.07;;
47529;SDS011;33272;51.922;7.730;2023-01-31T04:48:41;12.07;;;4.00;;
47529;SDS011;33272;51.922;7.730;2023-01-31T04:51:08;15.27;;;4.70;;
47529;SDS011;33272;51.922;7.730;2023-01-31T04:53:35;10.43;;;3.80;;
47529;SDS011;33272;51.922;7.730;2023-01-31T04:56:02;15.90;;;4.73;;
47529;SDS011;33272;51.922;7.730;2023-01-31T04:58:30;12.53;;;3.87;;
47529;SDS011;33272;51.922;7.730;2023-01-31T05:00:58;14.63;;;4.83;;
47529;SDS011;33272;51.922;7.730;2023-01-31T05:03:26;14.47;;;4.00;;
47529;SDS011;33272;51.922;7.730;2023-01-31T05:05:53;9.93;;;3.70;;
47529;SDS011;33272;51.922;7.730;2023-01-31T05:08:20;11.57;;;4.13;;
47529;SDS011;33272;51.922;7.730;2023-01-31T05:10:47;15.70;;;4.33;;
47529;SDS011;33272;51.922;7.730;2023-01-31T05:13:14;13.87;;;4.13;;
47529;SDS011;33272;51.922;7.730;2023-01-31T05:15:41;15.00;;;4.97;;
47529;SDS011;33272;51.922;7.730;2023-01-31T05:18:09;15.20;;;4.20;;
47529;SDS011;33272;51.922;7.730;2023-01-31T05:20:36;11.23;;;4.43;;
47529;SDS011;33272;51.922;7.730;2023-01-31T05:23:04;15.17;;;5.20;;
47529;SDS011;33272;51.922;7.730;2023-01-31T05:25:33;14.17;;;4.80;;
47529;SDS011;33272;51.922;7.730;2023-01-31T05:28:01;17.57;;;5.17;;
47529;SDS011;33272;51.922;7.730;2023-01-31T05:30:28;17.53;;;5.53;;
47529;SDS011;33272;51.922;7.730;2023-01-31T05:32:55;16.13;;;5.20;;
47529;SDS011;33272;51.922;7.730;2023-01-31T05:35:24;16.73;;;6.07;;
47529;SDS011;33272;51.922;7.730;2023-01-31T05:37:51;19.77;;;6.03;;
47529;SDS011;33272;51.922;7.730;2023-01-31T05:40:19;13.80;;;5.37;;
47529;SDS011;33272;51.922;7.730;2023-01-31T05:42:49;13.87;;;5.93;;
47529;SDS011;33272;51.922;7.730;2023-01-31T05:45:20;13.23;;;4.87;;
47529;SDS011;33272;51.922;7.730;2023-01-31T05:47:47;14.27;;;6.00;;
47529;SDS011;33272;51.922;7.730;2023-01-31T05:50:15;14.63;;;5.60;;
47529;SDS011;33272;51.922;7.730;2023-01-31T05:52:49;14.33;;;5.50;;
47529;SDS011;33272;51.922;7.730;2023-01-31T05:55:17;14.27;;;5.63;;
47529;SDS011;33272;51.922;7.730;2023-01-31T05:57:45;13.47;;;5.97;;
47529;SDS011;33272;51.922;7.730;2023-01-31T06:00:12;15.00;;;5.63;;
47529;SDS011;33272;51.922;7.730;2023-01-31T06:02:41;19.53;;;6.43;;
47529;SDS011;33272;51.922;7.730;2023-01-31T06:05:08;15.23;;;5.67;;
47529;SDS011;33272;51.922;7.730;2023-01-31T06:07:36;14.53;;;5.77;;
47529;SDS011;33272;51.922;7.730;2023-01-31T06:10:06;15.10;;;6.00;;
47529;SDS011;33272;51.922;7.730;2023-01-31T06:12:35;19.70;;;6.30;;
47529;SDS011;33272;51.922;7.730;2023-01-31T06:15:02;14.77;;;5.57;;
47529;SDS011;33272;51.922;7.730;2023-01-31T06:17:31;13.30;;;6.20;;
47529;SDS011;33272;51.922;7.730;2023-01-31T06:19:58;17.23;;;6.13;;
47529;SDS011;33272;51.922;7.730;2023-01-31T06:22:25;18.47;;;6.60;;
47529;SDS011;33272;51.922;7.730;2023-01-31T06:24:52;15.10;;;7.20;;
47529;SDS011;33272;51.922;7.730;2023-01-31T06:27:20;14.27;;;6.43;;
47529;SDS011;33272;51.922;7.730;2023-01-31T06:29:47;15.83;;;6.33;;
47529;SDS011;33272;51.922;7.730;2023-01-31T06:32:14;12.90;;;5.77;;
47529;SDS011;33272;51.922;7.730;2023-01-31T06:34:41;14.17;;;6.23;;
47529;SDS011;33272;51.922;7.730;2023-01-31T06:37:08;16.97;;;6.67;;
47529;SDS011;33272;51.922;7.730;2023-01-31T06:39:35;18.10;;;6.50;;
47529;SDS011;33272;51.922;7.730;2023-01-31T06:42:02;15.30;;;7.07;;
47529;SDS011;33272;51.922;7.730;2023-01-31T06:44:31;13.40;;;6.40;;
47529;SDS011;33272;51.922;7.730;2023-01-31T06:46:58;16.80;;;6.97;;
47529;SDS011;33272;51.922;7.730;2023-01-31T06:49:25;28.23;;;8.20;;
47529;SDS011;33272;51.922;7.730;2023-01-31T06:51:52;16.67;;;6.97;;
47529;SDS011;33272;51.922;7.730;2023-01-31T06:54:19;19.40;;;7.17;;
47529;SDS011;33272;51.922;7.730;2023-01-31T06:56:46;19.83;;;7.10;;
47529;SDS011;33272;51.922;7.730;2023-01-31T06:59:14;17.80;;;7.53;;
47529;SDS011;33272;51.922;7.730;2023-01-31T07:01:42;15.27;;;6.60;;
47529;SDS011;33272;51.922;7.730;2023-01-31T07:04:09;15.87;;;8.03;;
47529;SDS011;33272;51.922;7.730;2023-01-31T07:06:36;21.03;;;7.97;;
47529;SDS011;33272;51.922;7.730;2023-01-31T07:09:03;18.20;;;7.43;;
47529;SDS011;33272;51.922;7.730;2023-01-31T07:11:31;23.70;;;8.10;;
47529;SDS011;33272;51.922;7.730;2023-01-31T07:13:58;14.70;;;8.47;;
47529;SDS011;33272;51.922;7.730;2023-01-31T07:16:25;18.60;;;7.73;;
47529;SDS011;33272;51.922;7.730;2023-01-31T07:18:54;16.20;;;7.50;;
47529;SDS011;33272;51.922;7.730;2023-01-31T07:21:21;21.30;;;8.83;;
47529;SDS011;33272;51.922;7.730;2023-01-31T07:23:50;17.83;;;7.70;;
47529;SDS011;33272;51.922;7.730;2023-01-31T07:26:18;16.00;;;8.80;;
47529;SDS011;33272;51.922;7.730;2023-01-31T07:28:45;23.57;;;8.40;;
47529;SDS011;33272;51.922;7.730;2023-01-31T07:31:13;18.07;;;8.73;;
47529;SDS011;33272;51.922;7.730;2023-01-31T07:33:40;16.13;;;7.97;;
47529;SDS011;33272;51.922;7.730;2023-01-31T07:36:09;15.63;;;7.40;;
47529;SDS011;33272;51.922;7.730;2023-01-31T07:38:39;13.80;;;7.20;;
47529;SDS011;33272;51.922;7.730;2023-01-31T07:41:08;20.10;;;7.63;;
47529;SDS011;33272;51.922;7.730;2023-01-31T07:43:36;20.90;;;7.27;;
47529;SDS011;33272;51.922;7.730;2023-01-31T07:46:04;17.53;;;7.60;;
47529;SDS011;33272;51.922;7.730;2023-01-31T07:48:35;14.67;;;7.33;;
47529;SDS011;33272;51.922;7.730;2023-01-31T07:51:02;16.37;;;7.53;;
47529;SDS011;33272;51.922;7.730;2023-01-31T07:53:32;14.73;;;7.53;;
47529;SDS011;33272;51.922;7.730;2023-01-31T07:56:06;18.67;;;7.87;;
47529;SDS011;33272;51.922;7.730;2023-01-31T07:58:36;21.10;;;7.97;;
47529;SDS011;33272;51.922;7.730;2023-01-31T08:01:04;18.17;;;7.80;;
47529;SDS011;33272;51.922;7.730;2023-01-31T08:03:57;16.70;;;7.30;;
47529;SDS011;33272;51.922;7.730;2023-01-31T08:06:25;17.70;;;6.93;;
47529;SDS011;33272;51.922;7.730;2023-01-31T08:08:56;14.70;;;6.97;;
47529;SDS011;33272;51.922;7.730;2023-01-31T08:11:23;15.13;;;6.67;;
47529;SDS011;33272;51.922;7.730;2023-01-31T08:13:51;12.97;;;7.37;;
47529;SDS011;33272;51.922;7.730;2023-01-31T08:16:18;18.00;;;7.43;;
47529;SDS011;33272;51.922;7.730;2023-01-31T08:18:46;18.30;;;7.37;;
47529;SDS011;33272;51.922;7.730;2023-01-31T08:21:14;12.93;;;6.80;;
47529;SDS011;33272;51.922;7.730;2023-01-31T08:23:42;17.17;;;7.00;;
47529;SDS011;33272;51.922;7.730;2023-01-31T08:26:11;17.67;;;6.90;;
47529;SDS011;33272;51.922;7.730;2023-01-31T08:28:41;16.67;;;7.70;;
47529;SDS011;33272;51.922;7.730;2023-01-31T08:31:10;16.40;;;8.37;;
47529;SDS011;33272;51.922;7.730;2023-01-31T08:33:39;17.47;;;6.33;;
47529;SDS011;33272;51.922;7.730;2023-01-31T08:36:07;20.60;;;7.43;;
47529;SDS011;33272;51.922;7.730;2023-01-31T08:38:36;14.27;;;7.00;;
47529;SDS011;33272;51.922;7.730;2023-01-31T08:41:03;17.90;;;6.90;;
47529;SDS011;33272;51.922;7.730;2023-01-31T08:43:32;11.97;;;6.73;;
47529;SDS011;33272;51.922;7.730;2023-01-31T08:45:59;15.27;;;6.60;;
47529;SDS011;33272;51.922;7.730;2023-01-31T08:48:26;15.77;;;6.77;;
47529;SDS011;33272;51.922;7.730;2023-01-31T08:50:53;17.77;;;6.90;;
47529;SDS011;33272;51.922;7.730;2023-01-31T08:53:20;14.97;;;6.50;;
47529;SDS011;33272;51.922;7.730;2023-01-31T08:55:47;15.43;;;6.00;;
47529;SDS011;33272;51.922;7.730;2023-01-31T08:58:14;14.20;;;6.63;;
47529;SDS011;33272;51.922;7.730;2023-01-31T09:00:42;15.77;;;6.37;;
47529;SDS011;33272;51.922;7.730;2023-01-31T09:03:12;13.03;;;5.73;;
47529;SDS011;33272;51.922;7.730;2023-01-31T09:05:42;15.30;;;7.20;;
47529;SDS011;33272;51.922;7.730;2023-01-31T09:08:09;14.47;;;6.00;;
47529;SDS011;33272;51.922;7.730;2023-01-31T09:10:36;15.27;;;6.03;;
47529;SDS011;33272;51.922;7.730;2023-01-31T09:13:03;14.97;;;5.47;;
47529;SDS011;33272;51.922;7.730;2023-01-31T09:15:30;13.13;;;5.53;;
47529;SDS011;33272;51.922;7.730;2023-01-31T09:17:58;12.07;;;5.90;;
47529;SDS011;33272;51.922;7.730;2023-01-31T09:20:25;12.93;;;5.67;;
47529;SDS011;33272;51.922;7.730;2023-01-31T09:22:52;9.30;;;5.20;;
47529;SDS011;33272;51.922;7.730;2023-01-31T09:25:20;14.80;;;5.70;;
47529;SDS011;33272;51.922;7.730;2023-01-31T09:27:47;16.60;;;5.70;;
47529;SDS011;33272;51.922;7.730;2023-01-31T09:30:14;14.70;;;5.40;;
47529;SDS011;33272;51.922;7.730;2023-01-31T09:32:41;11.47;;;4.80;;
47529;SDS011;33272;51.922;7.730;2023-01-31T09:35:11;12.97;;;5.73;;
47529;SDS011;33272;51.922;7.730;2023-01-31T09:37:38;12.40;;;5.20;;
47529;SDS011;33272;51.922;7.730;2023-01-31T09:40:06;14.40;;;5.67;;
47529;SDS011;33272;51.922;7.730;2023-01-31T09:45:14;16.50;;;6.70;;
47529;SDS011;33272;51.922;7.730;2023-01-31T09:47:50;11.17;;;5.20;;
47529;SDS011;33272;51.922;7.730;2023-01-31T09:50:22;9.87;;;5.37;;
47529;SDS011;33272;51.922;7.730;2023-01-31T09:52:56;12.40;;;5.27;;
47529;SDS011;33272;51.922;7.730;2023-01-31T09:55:25;14.47;;;5.43;;
47529;SDS011;33272;51.922;7.730;2023-01-31T09:58:02;13.23;;;4.87;;
47529;SDS011;33272;51.922;7.730;2023-01-31T10:00:42;13.90;;;5.60;;
47529;SDS011;33272;51.922;7.730;2023-01-31T10:03:21;11.90;;;5.27;;
47529;SDS011;33272;51.922;7.730;2023-01-31T10:06:07;14.40;;;6.03;;
47529;SDS011;33272;51.922;7.730;2023-01-31T10:08:45;11.20;;;5.53;;
47529;SDS011;33272;51.922;7.730;2023-01-31T10:11:22;11.53;;;5.87;;
47529;SDS011;33272;51.922;7.730;2023-01-31T10:13:59;12.33;;;5.43;;
47529;SDS011;33272;51.922;7.730;2023-01-31T10:16:39;11.33;;;4.97;;
47529;SDS011;33272;51.922;7.730;2023-01-31T10:19:11;17.93;;;6.73;;
47529;SDS011;33272;51.922;7.730;2023-01-31T10:21:45;15.63;;;5.67;;
47529;SDS011;33272;51.922;7.730;2023-01-31T10:24:17;13.67;;;5.47;;
47529;SDS011;33272;51.922;7.730;2023-01-31T10:26:50;11.53;;;5.57;;
47529;SDS011;33272;51.922;7.730;2023-01-31T10:29:22;12.23;;;5.33;;
47529;SDS011;33272;51.922;7.730;2023-01-31T10:31:55;11.53;;;6.20;;
47529;SDS011;33272;51.922;7.730;2023-01-31T10:34:27;14.37;;;5.80;;
47529;SDS011;33272;51.922;7.730;2023-01-31T10:37:02;12.87;;;6.20;;
47529;SDS011;33272;51.922;7.730;2023-01-31T10:39:39;14.17;;;5.57;;
47529;SDS011;33272;51.922;7.730;2023-01-31T10:42:13;15.37;;;5.60;;
47529;SDS011;33272;51.922;7.730;2023-01-31T10:44:49;13.27;;;5.73;;
47529;SDS011;33272;51.922;7.730;2023-01-31T10:47:20;16.00;;;6.47;;
47529;SDS011;33272;51.922;7.730;2023-01-31T10:49:58;13.10;;;6.47;;
47529;SDS011;33272;51.922;7.730;2023-01-31T10:52:31;16.87;;;6.63;;
47529;SDS011;33272;51.922;7.730;2023-01-31T10:55:21;16.90;;;6.77;;
47529;SDS011;33272;51.922;7.730;2023-01-31T10:58:07;16.13;;;6.17;;
47529;SDS011;33272;51.922;7.730;2023-01-31T11:00:38;13.87;;;6.30;;
47529;SDS011;33272;51.922;7.730;2023-01-31T11:03:05;12.70;;;6.53;;
47529;SDS011;33272;51.922;7.730;2023-01-31T11:05:35;11.97;;;6.10;;
47529;SDS011;33272;51.922;7.730;2023-01-31T11:08:15;13.23;;;5.93;;
47529;SDS011;33272;51.922;7.730;2023-01-31T11:10:53;15.00;;;6.70;;
47529;SDS011;33272;51.922;7.730;2023-01-31T11:13:22;15.20;;;7.00;;
47529;SDS011;33272;51.922;7.730;2023-01-31T11:15:49;14.47;;;6.77;;
47529;SDS011;33272;51.922;7.730;2023-01-31T11:18:26;13.27;;;6.63;;
47529;SDS011;33272;51.922;7.730;2023-01-31T11:20:57;11.67;;;6.83;;
47529;SDS011;33272;51.922;7.730;2023-01-31T11:23:28;15.57;;;7.10;;
47529;SDS011;33272;51.922;7.730;2023-01-31T11:25:58;17.20;;;7.27;;
47529;SDS011;33272;51.922;7.730;2023-01-31T11:28:28;13.27;;;7.17;;
47529;SDS011;33272;51.922;7.730;2023-01-31T11:31:02;15.73;;;7.30;;
47529;SDS011;33272;51.922;7.730;2023-01-31T11:33:41;12.57;;;6.10;;
47529;SDS011;33272;51.922;7.730;2023-01-31T11:36:11;13.17;;;6.63;;
47529;SDS011;33272;51.922;7.730;2023-01-31T11:38:41;14.53;;;6.63;;
47529;SDS011;33272;51.922;7.730;2023-01-31T11:41:27;15.07;;;6.67;;
47529;SDS011;33272;51.922;7.730;2023-01-31T11:44:09;18.27;;;6.93;;
47529;SDS011;33272;51.922;7.730;2023-01-31T11:46:44;11.47;;;5.73;;
47529;SDS011;33272;51.922;7.730;2023-01-31T11:49:19;15.70;;;7.33;;
47529;SDS011;33272;51.922;7.730;2023-01-31T11:51:56;11.57;;;6.67;;
47529;SDS011;33272;51.922;7.730;2023-01-31T11:54:27;15.10;;;6.70;;
47529;SDS011;33272;51.922;7.730;2023-01-31T11:56:57;11.83;;;5.57;;
47529;SDS011;33272;51.922;7.730;2023-01-31T11:59:27;14.90;;;6.37;;
47529;SDS011;33272;51.922;7.730;2023-01-31T12:01:56;14.27;;;6.17;;
47529;SDS011;33272;51.922;7.730;2023-01-31T12:04:28;12.57;;;5.67;;
47529;SDS011;33272;51.922;7.730;2023-01-31T12:07:00;12.90;;;5.20;;
47529;SDS011;33272;51.922;7.730;2023-01-31T12:09:39;12.17;;;5.33;;
47529;SDS011;33272;51.922;7.730;2023-01-31T12:12:21;12.17;;;5.70;;
47529;SDS011;33272;51.922;7.730;2023-01-31T12:14:58;12.67;;;5.20;;
47529;SDS011;33272;51.922;7.730;2023-01-31T12:17:27;15.13;;;5.83;;
47529;SDS011;33272;51.922;7.730;2023-01-31T12:20:06;12.33;;;5.10;;
47529;SDS011;33272;51.922;7.730;2023-01-31T12:22:59;14.07;;;5.37;;
47529;SDS011;33272;51.922;7.730;2023-01-31T12:25:47;15.03;;;5.57;;
47529;SDS011;33272;51.922;7.730;2023-01-31T12:28:30;10.63;;;5.40;;
47529;SDS011;33272;51.922;7.730;2023-01-31T12:31:08;11.93;;;5.17;;
47529;SDS011;33272;51.922;7.730;2023-01-31T12:33:58;15.50;;;6.07;;
47529;SDS011;33272;51.922;7.730;2023-01-31T12:36:46;11.83;;;5.90;;
47529;SDS011;33272;51.922;7.730;2023-01-31T12:39:40;13.97;;;5.67;;
47529;SDS011;33272;51.922;7.730;2023-01-31T12:45:26;13.57;;;5.87;;
47529;SDS011;33272;51.922;7.730;2023-01-31T12:48:35;11.67;;;5.63;;
47529;SDS011;33272;51.922;7.730;2023-01-31T12:51:31;13.63;;;7.47;;
47529;SDS011;33272;51.922;7.730;2023-01-31T12:54:12;11.77;;;6.43;;
47529;SDS011;33272;51.922;7.730;2023-01-31T12:57:00;10.63;;;5.77;;
47529;SDS011;33272;51.922;7.730;2023-01-31T12:59:45;12.83;;;6.47;;
47529;SDS011;33272;51.922;7.730;2023-01-31T13:02:24;10.60;;;6.90;;
47529;SDS011;33272;51.922;7.730;2023-01-31T13:05:08;11.37;;;6.40;;
47529;SDS011;33272;51.922;7.730;2023-01-31T13:07:52;9.70;;;6.70;;
47529;SDS011;33272;51.922;7.730;2023-01-31T13:10:28;7.67;;;6.67;;
47529;SDS011;33272;51.922;7.730;2023-01-31T13:13:03;10.53;;;7.27;;
47529;SDS011;33272;51.922;7.730;2023-01-31T13:15:43;9.80;;;7.00;;
47529;SDS011;33272;51.922;7.730;2023-01-31T13:18:16;11.83;;;7.47;;
47529;SDS011;33272;51.922;7.730;2023-01-31T13:20:45;12.43;;;7.10;;
47529;SDS011;33272;51.922;7.730;2023-01-31T13:23:21;12.50;;;7.20;;
47529;SDS011;33272;51.922;7.730;2023-01-31T13:25:56;10.37;;;7.23;;
47529;SDS011;33272;51.922;7.730;2023-01-31T13:28:33;9.67;;;6.97;;
47529;SDS011;33272;51.922;7.730;2023-01-31T13:31:07;10.00;;;7.23;;
47529;SDS011;33272;51.922;7.730;2023-01-31T13:33:43;10.73;;;7.37;;
47529;SDS011;33272;51.922;7.730;2023-01-31T13:36:18;14.50;;;7.70;;
47529;SDS011;33272;51.922;7.730;2023-01-31T13:38:53;10.93;;;7.17;;
47529;SDS011;33272;51.922;7.730;2023-01-31T13:41:24;10.57;;;7.60;;
47529;SDS011;33272;51.922;7.730;2023-01-31T13:43:55;8.17;;;6.73;;
47529;SDS011;33272;51.922;7.730;2023-01-31T13:46:26;11.83;;;7.03;;
47529;SDS011;33272;51.922;7.730;2023-01-31T13:49:00;8.90;;;7.27;;
47529;SDS011;33272;51.922;7.730;2023-01-31T13:51:33;8.90;;;7.13;;
47529;SDS011;33272;51.922;7.730;2023-01-31T13:54:06;8.60;;;7.10;;
47529;SDS011;33272;51.922;7.730;2023-01-31T13:56:41;9.37;;;7.20;;
47529;SDS011;33272;51.922;7.730;2023-01-31T13:59:17;10.63;;;6.90;;
47529;SDS011;33272;51.922;7.730;2023-01-31T14:01:50;10.90;;;7.90;;
47529;SDS011;33272;51.922;7.730;2023-01-31T14:04:28;11.27;;;7.27;;
47529;SDS011;33272;51.922;7.730;2023-01-31T14:13:24;9.63;;;7.50;;
47529;SDS011;33272;51.922;7.730;2023-01-31T14:22:30;10.70;;;7.47;;
47529;SDS011;33272;51.922;7.730;2023-01-31T14:25:00;8.53;;;7.73;;
47529;SDS011;33272;51.922;7.730;2023-01-31T14:27:31;10.40;;;8.13;;
47529;SDS011;33272;51.922;7.730;2023-01-31T14:30:19;10.03;;;7.80;;
47529;SDS011;33272;51.922;7.730;2023-01-31T14:33:04;10.20;;;7.70;;
47529;SDS011;33272;51.922;7.730;2023-01-31T14:45:38;11.83;;;7.10;;
47529;SDS011;33272;51.922;7.730;2023-01-31T14:48:58;10.10;;;7.43;;
47529;SDS011;33272;51.922;7.730;2023-01-31T14:51:47;8.77;;;7.90;;
47529;SDS011;33272;51.922;7.730;2023-01-31T14:54:40;8.63;;;7.30;;
47529;SDS011;33272;51.922;7.730;2023-01-31T14:57:24;9.50;;;7.73;;
47529;SDS011;33272;51.922;7.730;2023-01-31T14:59:54;11.27;;;8.80;;
47529;SDS011;33272;51.922;7.730;2023-01-31T15:02:39;10.53;;;7.77;;
47529;SDS011;33272;51.922;7.730;2023-01-31T15:05:15;10.47;;;7.87;;
47529;SDS011;33272;51.922;7.730;2023-01-31T15:07:57;11.73;;;8.17;;
47529;SDS011;33272;51.922;7.730;2023-01-31T15:16:19;13.37;;;9.27;;
47529;SDS011;33272;51.922;7.730;2023-01-31T15:18:51;12.17;;;8.53;;
47529;SDS011;33272;51.922;7.730;2023-01-31T15:21:25;10.10;;;8.37;;
47529;SDS011;33272;51.922;7.730;2023-01-31T15:23:56;11.27;;;8.87;;
47529;SDS011;33272;51.922;7.730;2023-01-31T15:26:26;10.83;;;8.43;;
47529;SDS011;33272;51.922;7.730;2023-01-31T15:28:59;11.47;;;8.20;;
47529;SDS011;33272;51.922;7.730;2023-01-31T15:31:29;11.53;;;9.20;;
47529;SDS011;33272;51.922;7.730;2023-01-31T15:34:00;12.87;;;8.70;;
47529;SDS011;33272;51.922;7.730;2023-01-31T15:36:36;11.67;;;8.70;;
47529;SDS011;33272;51.922;7.730;2023-01-31T15:39:19;11.50;;;9.27;;
47529;SDS011;33272;51.922;7.730;2023-01-31T15:41:50;11.37;;;8.83;;
47529;SDS011;33272;51.922;7.730;2023-01-31T15:44:17;10.07;;;8.97;;
47529;SDS011;33272;51.922;7.730;2023-01-31T15:46:47;12.13;;;8.67;;
47529;SDS011;33272;51.922;7.730;2023-01-31T15:49:19;13.77;;;8.77;;
47529;SDS011;33272;51.922;7.730;2023-01-31T15:52:03;11.20;;;8.43;;